»·PEaware :: N26266 KMRY-KSAC

N26266 :: KMRY-KSAC

FLIGHT INFORMATION

Flight Status: Arrived
Operator: Privately registered:
United States
More flights under this callsign
Pilot: Michael L. (17142)
Aircraft: GRUMMAN AERO AA5 CHEETAH TIGER
(AA5)
More flights by this aircraft type
Origin: KMRY Monterey Peninsula
United States
Destination: KSAC Sacramento Executive
United States
More flights between these airports :: More routes between these airports
Route: SNS V111 MOD LIN SAC
File this flight plan on PilotEdge
Remarks: RV ILS 02
Altitude:
(Current/Filed)
7,000ft
Speed:
(Current/Filed)
139kts
Departed: 23-Sep-18 01:21 PM
Arrived: 23-Sep-18 02:36 PM
Distance/Time
Traveled:
117nm/1:15
Distance/Time
To Go:
Arrived

Flight Plot

Page will automatically refresh every two minutes.

Flight plan parsing failed; only flown route is shown


Map Options




Map Legend


Flown Route
Filed Route
Departure Airport
Arrival Airport
Navaid (VOR, NDB)
Fix

Horizontal Profiles

Position Reports

Time Latitude Longitude Heading Altitude Ground
Speed
23-Sep-18 13:08 36.587648 -121.838624 292 257ft 0kts
23-Sep-18 13:09 36.587648 -121.838624 292 257ft 0kts
23-Sep-18 13:10 36.587648 -121.838624 292 257ft 0kts
23-Sep-18 13:11 36.587648 -121.838624 292 257ft 0kts
23-Sep-18 13:12 36.587648 -121.838624 292 257ft 0kts
23-Sep-18 13:13 36.587648 -121.838624 292 257ft 0kts
23-Sep-18 13:14 36.587648 -121.838624 292 257ft 0kts
23-Sep-18 13:15 36.587577 -121.838950 229 257ft 0kts
23-Sep-18 13:16 36.587577 -121.838950 229 257ft 0kts
23-Sep-18 13:17 36.587577 -121.838950 229 257ft 0kts
23-Sep-18 13:18 36.585557 -121.834433 112 257ft 22kts
23-Sep-18 13:19 36.585370 -121.833515 144 257ft 0kts
23-Sep-18 13:20 36.585265 -121.833476 176 257ft 0kts
23-Sep-18 13:21 36.585265 -121.833476 176 257ft 0kts
23-Sep-18 13:22 36.585265 -121.833476 176 257ft 0kts
23-Sep-18 13:23 36.590386 -121.850719 289 699ft 108kts
23-Sep-18 13:24 36.611984 -121.871499 339 2307ft 100kts
23-Sep-18 13:25 36.637178 -121.883134 339 3818ft 96kts
23-Sep-18 13:26 36.655137 -121.871617 91 5204ft 95kts
23-Sep-18 13:27 36.657738 -121.838674 89 6394ft 105kts
23-Sep-18 13:28 36.655909 -121.797238 93 7054ft 141kts
23-Sep-18 13:29 36.655384 -121.746880 86 6995ft 144kts
23-Sep-18 13:30 36.657827 -121.696997 86 6995ft 144kts
23-Sep-18 13:31 36.660164 -121.647196 86 6995ft 144kts
23-Sep-18 13:32 36.662385 -121.597302 87 6995ft 144kts
23-Sep-18 13:33 36.694780 -121.575342 12 6961ft 144kts
23-Sep-18 13:34 36.732303 -121.558844 28 6962ft 144kts
23-Sep-18 13:35 36.767544 -121.535083 27 6970ft 144kts
23-Sep-18 13:36 36.803144 -121.511664 27 6978ft 144kts
23-Sep-18 13:37 36.838685 -121.488507 27 6986ft 144kts
23-Sep-18 13:38 36.874278 -121.465390 27 6994ft 144kts
23-Sep-18 13:39 36.909791 -121.442340 27 7002ft 144kts
23-Sep-18 13:40 36.945417 -121.419209 27 7010ft 144kts
23-Sep-18 13:41 36.980773 -121.395873 34 7016ft 144kts
23-Sep-18 13:42 37.014049 -121.368594 31 7017ft 143kts
23-Sep-18 13:43 37.047340 -121.343607 31 7015ft 143kts
23-Sep-18 13:44 37.081702 -121.318629 31 7035ft 141kts
23-Sep-18 13:45 37.114502 -121.295576 28 7069ft 143kts
23-Sep-18 13:46 37.150235 -121.274104 28 7057ft 144kts
23-Sep-18 13:47 37.185950 -121.251330 27 7062ft 144kts
23-Sep-18 13:48 37.221354 -121.228102 28 7067ft 144kts
23-Sep-18 13:49 37.256821 -121.204479 28 7073ft 144kts
23-Sep-18 13:50 37.292130 -121.180802 28 7079ft 144kts
23-Sep-18 13:51 37.327481 -121.157019 28 7086ft 144kts
23-Sep-18 13:52 37.362623 -121.133328 28 7092ft 144kts
23-Sep-18 13:53 37.397728 -121.109630 28 7098ft 144kts
23-Sep-18 13:54 37.433104 -121.085720 28 7103ft 144kts
23-Sep-18 13:55 37.468273 -121.061924 28 7109ft 144kts
23-Sep-18 13:56 37.504028 -121.038123 27 7046ft 145kts
23-Sep-18 13:57 37.539204 -121.014074 28 7056ft 144kts
23-Sep-18 13:58 37.574223 -120.990182 28 7063ft 144kts
23-Sep-18 13:59 37.609336 -120.966303 28 7069ft 144kts
23-Sep-18 14:00 37.645561 -120.954433 340 7052ft 144kts
23-Sep-18 14:01 37.684142 -120.963804 358 7053ft 144kts
23-Sep-18 14:02 37.724210 -120.966412 356 7063ft 144kts
23-Sep-18 14:03 37.764048 -120.970077 355 7071ft 144kts
23-Sep-18 14:04 37.804452 -120.974136 355 6997ft 146kts
23-Sep-18 14:05 37.844619 -120.978517 355 6997ft 144kts
23-Sep-18 14:06 37.884462 -120.982904 355 6997ft 144kts
23-Sep-18 14:07 37.924479 -120.985447 357 6999ft 144kts
23-Sep-18 14:08 37.964342 -120.988594 355 7003ft 144kts
23-Sep-18 14:09 38.004383 -120.992362 356 6751ft 152kts
23-Sep-18 14:10 38.046059 -120.996710 354 6062ft 150kts
23-Sep-18 14:11 38.087014 -121.003930 341 5416ft 149kts
23-Sep-18 14:12 38.107726 -121.044408 291 4989ft 143kts
23-Sep-18 14:13 38.125222 -121.086349 308 5077ft 141kts
23-Sep-18 14:14 38.153824 -121.120658 312 5038ft 142kts
23-Sep-18 14:15 38.179973 -121.158462 311 5037ft 142kts
23-Sep-18 14:16 38.205417 -121.196349 310 5037ft 143kts
23-Sep-18 14:17 38.228972 -121.231198 313 4688ft 155kts
23-Sep-18 14:18 38.244222 -121.253924 310 4195ft 161kts
23-Sep-18 14:19 38.258847 -121.275601 309 4009ft 149kts
23-Sep-18 14:20 38.271649 -121.295792 305 4006ft 141kts
23-Sep-18 14:21 38.278381 -121.320723 287 3991ft 139kts
23-Sep-18 14:22 38.284622 -121.345949 287 3980ft 139kts
23-Sep-18 14:23 38.290938 -121.371429 287 3968ft 139kts
23-Sep-18 14:24 38.297322 -121.397133 287 3969ft 138kts
23-Sep-18 14:25 38.303633 -121.422495 288 3969ft 138kts
23-Sep-18 14:26 38.310043 -121.448205 288 3969ft 138kts
23-Sep-18 14:27 38.316513 -121.474104 288 3969ft 138kts
23-Sep-18 14:28 38.322919 -121.499693 288 3969ft 138kts
23-Sep-18 14:29 38.329413 -121.525582 288 3969ft 138kts
23-Sep-18 14:30 38.335919 -121.550623 291 3686ft 149kts
23-Sep-18 14:31 38.344521 -121.577080 301 3116ft 152kts
23-Sep-18 14:32 38.377274 -121.578980 1 1667ft 164kts
23-Sep-18 14:33 38.412635 -121.573052 11 1722ft 127kts
23-Sep-18 14:34 38.436011 -121.557211 36 1727ft 89kts
23-Sep-18 14:35 38.458501 -121.538389 25 1274ft 99kts
23-Sep-18 14:36 38.482550 -121.517438 30 529ft 111kts
23-Sep-18 14:37 38.506190 -121.499891 34 46ft 97kts
23-Sep-18 14:38 38.517893 -121.490215 30 25ft 24kts
23-Sep-18 14:39 38.519174 -121.490491 276 25ft 0kts
23-Sep-18 14:40 38.519780 -121.494709 301 25ft 0kts
23-Sep-18 14:41 38.519780 -121.494709 301 25ft 0kts
23-Sep-18 14:42 38.519780 -121.494709 301 25ft 0kts
23-Sep-18 14:43 38.519780 -121.494709 301 25ft 0kts
23-Sep-18 14:51 38.519951 -121.493684 235 25ft 0kts
23-Sep-18 14:52 38.519951 -121.493684 235 25ft 0kts

Navigation Log

Ident Type
Flight plan parsing failed, navigation log unavailable